Terminal Aerodrome Forecast
Issued by NWS Cleveland, OH

Home | Current Version | Previous Version | Graphics & Text | Print | Product List | Glossary Off
Versions: 1 2 3 4 5 6 7 8 9 10 11 12 13 14 15 16 17 18 19

109
FTUS41 KCLE 141125
TAFMFD
TAF
KMFD 141125Z 1412/1512 VRB03KT P6SM SCT040
     FM141500 13006KT P6SM BKN250
     FM141900 14008KT P6SM BKN100
     FM150300 14010KT 5SM -SN OVC025
     FM150600 15012KT 2SM -SN OVC010=

USA.gov is the U.S. government's official web portal to all federal, state and local government web resources and services.